Time;durP1;ratioP1;P1;durP2;ratioP2;P2;SDS_P1;SDS_P2;PMS_P1;PMS_P2;Temp;Humidity;BMP_temperature;BMP_pressure;BME280_temperature;BME280_humidity;BME280_pressure;Samples;Min_cycle;Max_cycle;Signal;HPM_P1;HPM_P2
2021/12/25 00:00:50;;;;;;;9.33;6.53;;;;;;;;;;4973423;28;20209;-78
2021/12/25 00:03:17;;;;;;;10.07;8.00;;;;;;;;;;4959866;28;20206;-77
2021/12/25 00:05:52;;;;;;;11.03;8.53;;;;;;;;;;4969919;28;20235;-77
2021/12/25 00:08:19;;;;;;;10.43;7.50;;;;;;;;;;4959926;28;20626;-76
2021/12/25 00:10:46;;;;;;;11.50;8.73;;;;;;;;;;4963927;28;20241;-77
2021/12/25 00:13:14;;;;;;;11.33;9.47;;;;;;;;;;4953903;28;20198;-80
2021/12/25 00:15:42;;;;;;;9.43;7.80;;;;;;;;;;4972661;28;20812;-78
2021/12/25 00:18:09;;;;;;;8.10;6.37;;;;;;;;;;4960382;28;20202;-80
2021/12/25 00:20:37;;;;;;;8.70;6.40;;;;;;;;;;4956718;28;20288;-78
2021/12/25 00:23:07;;;;;;;13.00;6.50;;;;;;;;;;4973274;28;20197;-78
2021/12/25 00:25:40;;;;;;;13.30;8.80;;;;;;;;;;4973115;28;20272;-78
2021/12/25 00:28:21;;;;;;;8.20;6.87;;;;;;;;;;4967863;28;20217;-78
2021/12/25 00:31:03;;;;;;;17.00;10.80;;;;;;;;;;4964754;28;20283;-78
2021/12/25 00:33:54;;;;;;;19.27;13.10;;;;;;;;;;4956837;28;20694;-78
2021/12/25 00:36:21;;;;;;;27.80;15.53;;;;;;;;;;4972992;28;20224;-78
2021/12/25 00:38:51;;;;;;;6.73;6.03;;;;;;;;;;4972304;28;20217;-78
2021/12/25 00:41:21;;;;;;;14.83;8.80;;;;;;;;;;4953882;29;20186;-78
2021/12/25 00:43:49;;;;;;;7.47;6.50;;;;;;;;;;4953641;29;20264;-80
2021/12/25 00:46:16;;;;;;;9.13;6.90;;;;;;;;;;4954099;29;20667;-79
2021/12/25 00:48:44;;;;;;;12.80;8.67;;;;;;;;;;4953672;28;20229;-80
2021/12/25 00:51:11;;;;;;;7.00;5.70;;;;;;;;;;4963318;28;20298;-80
2021/12/25 00:53:39;;;;;;;6.70;5.43;;;;;;;;;;4972933;28;20713;-80
2021/12/25 00:56:08;;;;;;;6.93;5.37;;;;;;;;;;4967468;28;20268;-81
2021/12/25 00:58:36;;;;;;;8.63;5.77;;;;;;;;;;4963081;28;20205;-78
2021/12/25 01:01:03;;;;;;;6.87;6.17;;;;;;;;;;4959767;28;20268;-78
2021/12/25 01:03:30;;;;;;;32.03;19.23;;;;;;;;;;4970204;28;20200;-77
2021/12/25 01:05:57;;;;;;;24.53;18.43;;;;;;;;;;4972823;28;20306;-78
2021/12/25 01:08:25;;;;;;;19.77;13.50;;;;;;;;;;4973052;28;20229;-78
2021/12/25 01:10:53;;;;;;;12.50;10.77;;;;;;;;;;4956815;28;20253;-79
2021/12/25 01:13:26;;;;;;;9.23;8.00;;;;;;;;;;4964776;28;20205;-79
2021/12/25 01:16:05;;;;;;;8.70;5.43;;;;;;;;;;4956918;28;20217;-79
2021/12/25 01:21:54;;;;;;;7.50;6.33;;;;;;;;;;4939787;28;20241;-79
2021/12/25 01:24:45;;;;;;;5.97;5.33;;;;;;;;;;4971425;28;20208;-77
2021/12/25 01:30:13;;;;;;;5.97;5.13;;;;;;;;;;4954857;28;20209;-80
2021/12/25 01:33:03;;;;;;;8.60;7.00;;;;;;;;;;4969804;28;20197;-79
2021/12/25 01:35:59;;;;;;;9.13;7.67;;;;;;;;;;4976154;28;20260;-79
2021/12/25 01:38:49;;;;;;;6.47;4.40;;;;;;;;;;4937708;29;20573;-79
2021/12/25 01:41:28;;;;;;;5.63;4.87;;;;;;;;;;4942043;28;20276;-78
2021/12/25 01:49:28;;;;;;;5.60;4.30;;;;;;;;;;4976024;28;20295;-79
2021/12/25 01:51:56;;;;;;;5.30;4.83;;;;;;;;;;4976169;28;20244;-78
2021/12/25 01:54:23;;;;;;;6.83;5.83;;;;;;;;;;4975953;28;20207;-78
2021/12/25 01:56:50;;;;;;;7.43;5.27;;;;;;;;;;4959835;28;20212;-78
2021/12/25 01:59:18;;;;;;;7.23;5.20;;;;;;;;;;4943736;28;20235;-78
2021/12/25 02:01:47;;;;;;;13.30;11.27;;;;;;;;;;4968716;28;20332;-79
2021/12/25 02:04:15;;;;;;;14.30;10.60;;;;;;;;;;4956318;29;20673;-79
2021/12/25 02:06:42;;;;;;;12.67;8.87;;;;;;;;;;4937138;29;20206;-78
2021/12/25 02:09:10;;;;;;;6.33;5.53;;;;;;;;;;4937391;29;20236;-78
2021/12/25 02:11:37;;;;;;;6.27;4.80;;;;;;;;;;4938778;28;20212;-78
2021/12/25 02:14:05;;;;;;;10.50;6.67;;;;;;;;;;4970921;28;20205;-78
2021/12/25 02:16:48;;;;;;;14.57;8.90;;;;;;;;;;4964370;28;20646;-78
2021/12/25 02:19:31;;;;;;;12.43;8.37;;;;;;;;;;4961322;28;20194;-78
2021/12/25 02:22:01;;;;;;;11.73;9.13;;;;;;;;;;4955958;29;20233;-78
2021/12/25 02:24:29;;;;;;;10.30;8.57;;;;;;;;;;4956140;29;20194;-78
2021/12/25 02:26:56;;;;;;;7.03;6.33;;;;;;;;;;4956120;28;20246;-78
2021/12/25 02:29:24;;;;;;;9.60;7.73;;;;;;;;;;4970559;28;20259;-78
2021/12/25 02:31:52;;;;;;;8.67;6.17;;;;;;;;;;4958723;28;20237;-78
2021/12/25 02:34:19;;;;;;;11.50;7.93;;;;;;;;;;4968617;28;20233;-79
2021/12/25 02:36:46;;;;;;;13.20;8.50;;;;;;;;;;4955423;28;20265;-78
2021/12/25 02:39:15;;;;;;;9.33;7.87;;;;;;;;;;4955869;29;20225;-78
2021/12/25 02:41:43;;;;;;;11.27;7.10;;;;;;;;;;4970541;28;20670;-79
2021/12/25 02:44:10;;;;;;;12.77;7.77;;;;;;;;;;4975153;28;20197;-79
2021/12/25 02:46:37;;;;;;;10.10;7.23;;;;;;;;;;4975253;28;20228;-78
2021/12/25 02:49:05;;;;;;;9.57;7.27;;;;;;;;;;4975226;28;20224;-78
2021/12/25 02:51:32;;;;;;;8.23;6.77;;;;;;;;;;4974587;28;20201;-78
2021/12/25 02:53:59;;;;;;;8.87;6.93;;;;;;;;;;4974841;28;20709;-78
2021/12/25 02:56:28;;;;;;;7.93;6.43;;;;;;;;;;4967105;28;20297;-78
2021/12/25 02:58:55;;;;;;;6.73;5.57;;;;;;;;;;4966507;28;20197;-78
2021/12/25 03:01:24;;;;;;;6.77;5.70;;;;;;;;;;4959505;28;20197;-78
2021/12/25 03:03:51;;;;;;;7.60;5.40;;;;;;;;;;4974066;28;20208;-78
2021/12/25 03:06:18;;;;;;;7.37;5.10;;;;;;;;;;4968902;28;20205;-78
2021/12/25 03:08:46;;;;;;;6.73;5.57;;;;;;;;;;4955319;29;20233;-78
2021/12/25 03:11:14;;;;;;;5.70;5.10;;;;;;;;;;4955303;28;20201;-78
2021/12/25 03:13:55;;;;;;;7.17;5.17;;;;;;;;;;4971051;28;20201;-78
2021/12/25 03:16:23;;;;;;;6.37;5.03;;;;;;;;;;4961438;28;20193;-78
2021/12/25 03:18:54;;;;;;;5.57;4.27;;;;;;;;;;4964198;28;20255;-78
2021/12/25 03:21:21;;;;;;;6.00;4.63;;;;;;;;;;4954862;28;20233;-79
2021/12/25 03:23:50;;;;;;;9.53;5.57;;;;;;;;;;4955173;29;20675;-79
2021/12/25 03:26:17;;;;;;;5.93;4.20;;;;;;;;;;4955058;29;20309;-79
2021/12/25 03:28:49;;;;;;;6.47;4.73;;;;;;;;;;4966077;28;20221;-78
2021/12/25 03:31:19;;;;;;;4.90;4.27;;;;;;;;;;4958280;28;20194;-78
2021/12/25 03:33:49;;;;;;;4.07;3.60;;;;;;;;;;4942792;28;20221;-78
2021/12/25 03:36:17;;;;;;;3.93;3.63;;;;;;;;;;4973983;28;20251;-79
2021/12/25 03:38:44;;;;;;;4.57;4.13;;;;;;;;;;4955105;28;20675;-79
2021/12/25 03:41:12;;;;;;;5.23;4.47;;;;;;;;;;4954866;29;20785;-78
2021/12/25 03:43:40;;;;;;;5.97;4.90;;;;;;;;;;4954593;28;20297;-78
2021/12/25 03:46:10;;;;;;;8.50;6.47;;;;;;;;;;4954687;28;20209;-79
2021/12/25 03:59:47;;;;;;;13.13;8.57;;;;;;;;;;4969734;28;20724;-80
2021/12/25 04:02:20;;;;;;;12.67;9.43;;;;;;;;;;4935031;29;20679;-79
2021/12/25 04:04:50;;;;;;;14.40;10.77;;;;;;;;;;4972948;28;20609;-79
2021/12/25 04:07:50;;;;;;;17.07;9.90;;;;;;;;;;4973573;28;20197;-79
2021/12/25 04:10:08;;;;;;;12.07;9.97;;;;;;;;;;4973352;28;20683;-79
2021/12/25 04:12:36;;;;;;;11.40;9.53;;;;;;;;;;4968568;28;20243;-78
2021/12/25 04:15:03;;;;;;;28.50;16.60;;;;;;;;;;4962780;28;20636;-79
2021/12/25 04:17:32;;;;;;;10.17;8.10;;;;;;;;;;4961215;28;20201;-78
2021/12/25 04:20:02;;;;;;;14.20;9.33;;;;;;;;;;4969861;28;20698;-78
2021/12/25 04:22:36;;;;;;;16.33;12.33;;;;;;;;;;4973130;28;21230;-79
2021/12/25 04:25:04;;;;;;;16.80;12.57;;;;;;;;;;4971182;28;20193;-79
2021/12/25 04:27:32;;;;;;;14.67;9.17;;;;;;;;;;4959700;28;20229;-79
2021/12/25 04:30:04;;;;;;;15.70;13.00;;;;;;;;;;4963236;28;20225;-80
2021/12/25 04:33:10;;;;;;;15.20;9.80;;;;;;;;;;4968136;28;20196;-80
2021/12/25 05:03:20;;;;;;;5.47;4.90;;;;;;;;;;4966347;28;20240;-78
2021/12/25 05:05:49;;;;;;;7.43;5.87;;;;;;;;;;4957877;28;20198;-79
2021/12/25 05:08:16;;;;;;;9.10;6.80;;;;;;;;;;4957370;29;20213;-79
2021/12/25 05:10:43;;;;;;;12.80;9.13;;;;;;;;;;4960281;28;20221;-79
2021/12/25 05:13:11;;;;;;;25.33;18.17;;;;;;;;;;4969644;28;20293;-79
2021/12/25 05:15:38;;;;;;;74.50;42.93;;;;;;;;;;4967348;28;20207;-79
2021/12/25 05:18:06;;;;;;;34.60;22.97;;;;;;;;;;4962310;28;20281;-79
2021/12/25 05:20:33;;;;;;;41.90;28.93;;;;;;;;;;4972875;28;20280;-79
2021/12/25 05:23:02;;;;;;;14.13;12.63;;;;;;;;;;4957053;29;20238;-79
2021/12/25 05:25:29;;;;;;;8.80;7.23;;;;;;;;;;4956960;29;20245;-79
2021/12/25 05:27:58;;;;;;;7.07;5.97;;;;;;;;;;4973154;28;20201;-79
2021/12/25 05:30:25;;;;;;;21.30;15.43;;;;;;;;;;4961533;28;20220;-80
2021/12/25 05:32:53;;;;;;;26.97;18.90;;;;;;;;;;4965645;28;20286;-80
2021/12/25 05:35:20;;;;;;;79.37;45.27;;;;;;;;;;4963960;28;20276;-79
2021/12/25 05:37:47;;;;;;;54.30;34.00;;;;;;;;;;4976410;28;20259;-79
2021/12/25 05:40:16;;;;;;;27.53;19.50;;;;;;;;;;4952374;28;20692;-80
2021/12/25 05:42:43;;;;;;;20.43;15.70;;;;;;;;;;4953072;28;20198;-78
2021/12/25 05:45:11;;;;;;;17.50;12.03;;;;;;;;;;4949234;28;20230;-79
2021/12/25 05:47:38;;;;;;;10.67;9.20;;;;;;;;;;4949772;28;20209;-79
2021/12/25 05:50:06;;;;;;;11.53;8.67;;;;;;;;;;4950902;28;20225;-79
2021/12/25 05:52:33;;;;;;;14.07;9.83;;;;;;;;;;4949107;28;20210;-79
2021/12/25 05:55:00;;;;;;;12.23;7.83;;;;;;;;;;4951450;28;20198;-78
2021/12/25 05:57:29;;;;;;;43.07;23.50;;;;;;;;;;4950990;28;20198;-80
2021/12/25 05:59:56;;;;;;;63.07;34.73;;;;;;;;;;4949346;28;20656;-79
2021/12/25 06:02:23;;;;;;;67.43;39.43;;;;;;;;;;4948601;28;20198;-79
2021/12/25 06:04:51;;;;;;;62.80;35.03;;;;;;;;;;4949300;28;20198;-78
2021/12/25 06:07:18;;;;;;;49.83;30.77;;;;;;;;;;4951040;28;20697;-80
2021/12/25 06:09:45;;;;;;;87.97;49.90;;;;;;;;;;4955849;29;20230;-78
2021/12/25 06:12:14;;;;;;;75.80;45.47;;;;;;;;;;4953898;28;20678;-77
2021/12/25 06:14:44;;;;;;;51.07;31.33;;;;;;;;;;4966007;28;20297;-79
2021/12/25 06:17:12;;;;;;;55.50;38.80;;;;;;;;;;4940170;28;20191;-78
2021/12/25 06:19:39;;;;;;;95.53;73.03;;;;;;;;;;4950462;28;20591;-78
2021/12/25 06:22:06;;;;;;;78.13;53.10;;;;;;;;;;4952179;28;20241;-78
2021/12/25 06:24:34;;;;;;;60.70;33.10;;;;;;;;;;4953031;28;20230;-79
2021/12/25 06:27:01;;;;;;;41.13;27.10;;;;;;;;;;4951334;28;20205;-79
2021/12/25 06:29:28;;;;;;;40.23;25.80;;;;;;;;;;4950503;28;20321;-79
2021/12/25 06:31:58;;;;;;;31.30;22.23;;;;;;;;;;4939283;29;20202;-80
2021/12/25 06:34:26;;;;;;;33.90;23.77;;;;;;;;;;4936699;29;20249;-78
2021/12/25 06:36:53;;;;;;;32.47;22.07;;;;;;;;;;4971195;28;20204;-78
2021/12/25 06:39:20;;;;;;;53.17;39.07;;;;;;;;;;4972533;28;20243;-77
2021/12/25 06:41:47;;;;;;;53.47;41.37;;;;;;;;;;4955547;29;20201;-78
2021/12/25 06:44:15;;;;;;;30.67;23.13;;;;;;;;;;4946331;29;20594;-79
2021/12/25 06:46:42;;;;;;;22.50;15.77;;;;;;;;;;4936307;29;20245;-78
2021/12/25 06:49:11;;;;;;;22.33;17.30;;;;;;;;;;4942573;29;20218;-79
2021/12/25 06:51:38;;;;;;;36.83;27.63;;;;;;;;;;4948274;28;20193;-78
2021/12/25 06:54:05;;;;;;;43.53;32.23;;;;;;;;;;4974807;28;20239;-78
2021/12/25 06:56:33;;;;;;;89.00;60.27;;;;;;;;;;4974564;28;20201;-79
2021/12/25 06:59:00;;;;;;;58.03;38.30;;;;;;;;;;4963938;28;20300;-79
2021/12/25 07:01:28;;;;;;;32.97;22.10;;;;;;;;;;4958930;28;20232;-79
2021/12/25 07:03:55;;;;;;;22.20;16.60;;;;;;;;;;4974483;28;20197;-78
2021/12/25 07:06:24;;;;;;;18.37;13.73;;;;;;;;;;4974505;28;20201;-78
2021/12/25 07:08:51;;;;;;;54.87;43.97;;;;;;;;;;4974353;28;20212;-79
2021/12/25 07:11:19;;;;;;;26.83;21.07;;;;;;;;;;4967121;28;20232;-79
2021/12/25 07:13:47;;;;;;;50.93;32.27;;;;;;;;;;4955077;28;20200;-79
2021/12/25 07:16:14;;;;;;;46.63;33.80;;;;;;;;;;4955008;29;20205;-79
2021/12/25 07:18:41;;;;;;;24.93;20.67;;;;;;;;;;4955314;29;20202;-81
2021/12/25 07:21:09;;;;;;;40.80;29.87;;;;;;;;;;4950830;29;20237;-81
2021/12/25 07:23:37;;;;;;;23.13;16.43;;;;;;;;;;4953745;28;20216;-81
2021/12/25 07:26:05;;;;;;;32.37;18.87;;;;;;;;;;4954500;29;20690;-79
2021/12/25 07:28:34;;;;;;;61.27;34.63;;;;;;;;;;4972995;28;20675;-79
2021/12/25 07:31:01;;;;;;;76.23;46.57;;;;;;;;;;4952759;28;20281;-79
2021/12/25 07:33:29;;;;;;;59.50;43.40;;;;;;;;;;4949226;28;20253;-79
2021/12/25 07:35:57;;;;;;;50.33;37.20;;;;;;;;;;4953460;28;20573;-79
2021/12/25 07:38:24;;;;;;;43.90;33.77;;;;;;;;;;4947192;28;20198;-79
2021/12/25 07:40:53;;;;;;;47.03;34.57;;;;;;;;;;4952303;28;20201;-80
2021/12/25 07:43:20;;;;;;;34.37;23.43;;;;;;;;;;4949004;28;20241;-79
2021/12/25 07:45:48;;;;;;;39.97;28.17;;;;;;;;;;4939143;29;20694;-82
2021/12/25 07:48:19;;;;;;;47.60;33.80;;;;;;;;;;4955419;28;20663;-80
2021/12/25 07:50:46;;;;;;;57.27;43.53;;;;;;;;;;4973841;28;20220;-80
2021/12/25 07:53:16;;;;;;;32.37;24.90;;;;;;;;;;4951266;28;20206;-80
2021/12/25 07:55:43;;;;;;;29.00;24.90;;;;;;;;;;4935250;29;20270;-80
2021/12/25 07:58:12;;;;;;;35.47;27.57;;;;;;;;;;4948750;28;20197;-84
2021/12/25 08:00:39;;;;;;;37.37;26.97;;;;;;;;;;4951584;28;20201;-81
2021/12/25 08:03:07;;;;;;;105.30;68.20;;;;;;;;;;4954895;28;20718;-81
2021/12/25 08:05:34;;;;;;;71.10;48.93;;;;;;;;;;4956687;28;20260;-81
2021/12/25 08:08:03;;;;;;;34.07;27.07;;;;;;;;;;4954444;28;20582;-80
2021/12/25 08:10:31;;;;;;;54.50;41.37;;;;;;;;;;4951575;28;20225;-81
2021/12/25 08:12:59;;;;;;;32.87;25.47;;;;;;;;;;4948795;28;20210;-81
2021/12/25 08:15:29;;;;;;;28.20;20.93;;;;;;;;;;4948359;28;20210;-82
2021/12/25 08:17:58;;;;;;;22.30;16.93;;;;;;;;;;4946348;29;20198;-82
2021/12/25 08:20:26;;;;;;;23.13;17.83;;;;;;;;;;4950442;28;20228;-81
2021/12/25 08:22:53;;;;;;;12.10;10.23;;;;;;;;;;4937539;29;20616;-81
2021/12/25 08:25:20;;;;;;;24.30;19.97;;;;;;;;;;4949066;28;20638;-81
2021/12/25 08:27:48;;;;;;;29.90;24.13;;;;;;;;;;4955339;28;20197;-81
2021/12/25 08:30:17;;;;;;;32.13;24.10;;;;;;;;;;4954256;28;20229;-85
2021/12/25 08:32:46;;;;;;;88.00;52.60;;;;;;;;;;4950685;28;20289;-85
2021/12/25 08:35:15;;;;;;;45.00;30.53;;;;;;;;;;4944416;28;20616;-85
2021/12/25 08:37:43;;;;;;;21.57;14.93;;;;;;;;;;4948556;29;20205;-84
2021/12/25 08:40:13;;;;;;;21.40;16.40;;;;;;;;;;4944381;28;20203;-84
2021/12/25 08:42:46;;;;;;;23.47;17.17;;;;;;;;;;4934530;29;20297;-84
2021/12/25 08:45:30;;;;;;;25.47;17.67;;;;;;;;;;4936207;29;20254;-84
2021/12/25 08:47:59;;;;;;;27.60;21.67;;;;;;;;;;4934501;29;20663;-84
2021/12/25 08:50:27;;;;;;;17.63;15.10;;;;;;;;;;4934695;29;20606;-84
2021/12/25 08:52:54;;;;;;;15.20;12.40;;;;;;;;;;4936546;28;20265;-84
2021/12/25 08:55:22;;;;;;;16.77;9.73;;;;;;;;;;4955262;28;20207;-83
2021/12/25 08:57:49;;;;;;;15.33;13.67;;;;;;;;;;4953716;28;20238;-83
2021/12/25 09:00:17;;;;;;;24.40;16.10;;;;;;;;;;4965418;28;20241;-84
2021/12/25 09:02:44;;;;;;;18.80;15.57;;;;;;;;;;4951972;28;20297;-83
2021/12/25 09:05:13;;;;;;;17.33;14.93;;;;;;;;;;4951579;29;20292;-84
2021/12/25 09:07:43;;;;;;;18.33;16.53;;;;;;;;;;4952173;29;20210;-84
2021/12/25 09:10:11;;;;;;;13.10;7.73;;;;;;;;;;4952090;29;20284;-84
2021/12/25 09:12:41;;;;;;;7.50;6.70;;;;;;;;;;4951749;28;20879;-84
2021/12/25 09:15:10;;;;;;;7.43;6.33;;;;;;;;;;4952092;28;20750;-84
2021/12/25 09:17:42;;;;;;;7.77;6.83;;;;;;;;;;4952773;29;20643;-84
2021/12/25 09:20:12;;;;;;;6.60;5.70;;;;;;;;;;4952753;28;20194;-84
2021/12/25 09:22:51;;;;;;;8.83;5.77;;;;;;;;;;4952937;29;20234;-84
2021/12/25 09:25:22;;;;;;;6.40;5.43;;;;;;;;;;4953652;29;20206;-84
2021/12/25 09:27:52;;;;;;;6.43;5.17;;;;;;;;;;4953293;29;20675;-84
2021/12/25 09:30:21;;;;;;;8.20;5.53;;;;;;;;;;4952922;28;20229;-84
2021/12/25 09:32:51;;;;;;;11.80;9.83;;;;;;;;;;4953321;28;20209;-84
2021/12/25 09:35:24;;;;;;;5.87;5.27;;;;;;;;;;4953532;29;20642;-84
2021/12/25 09:37:51;;;;;;;6.83;4.40;;;;;;;;;;4953106;29;20209;-84
2021/12/25 09:40:21;;;;;;;29.53;24.50;;;;;;;;;;4953003;29;20198;-84
2021/12/25 09:42:52;;;;;;;51.67;46.30;;;;;;;;;;4953232;29;20252;-84
2021/12/25 09:45:20;;;;;;;27.77;22.70;;;;;;;;;;4953121;28;20924;-84
2021/12/25 09:47:50;;;;;;;8.60;7.77;;;;;;;;;;4956240;29;20205;-84
2021/12/25 09:50:18;;;;;;;13.90;12.60;;;;;;;;;;4956953;28;20229;-85
2021/12/25 09:52:56;;;;;;;9.30;6.43;;;;;;;;;;4956446;29;20293;-85
2021/12/25 09:55:23;;;;;;;11.80;8.90;;;;;;;;;;4956310;29;20205;-85
2021/12/25 09:57:50;;;;;;;10.00;9.00;;;;;;;;;;4956300;28;20206;-85
2021/12/25 10:00:27;;;;;;;11.40;9.07;;;;;;;;;;4956440;29;20221;-85
2021/12/25 10:02:58;;;;;;;20.17;16.43;;;;;;;;;;4956425;28;20201;-85
2021/12/25 10:05:28;;;;;;;13.27;10.97;;;;;;;;;;4956286;29;20686;-85
2021/12/25 10:08:08;;;;;;;13.73;11.83;;;;;;;;;;4956349;29;20241;-85
2021/12/25 10:10:46;;;;;;;12.03;10.30;;;;;;;;;;4956227;28;20240;-84
2021/12/25 10:13:22;;;;;;;135.00;83.87;;;;;;;;;;4955934;29;20208;-84
2021/12/25 10:15:49;;;;;;;73.63;47.60;;;;;;;;;;4956503;29;20609;-84
2021/12/25 10:18:25;;;;;;;46.43;37.17;;;;;;;;;;4955937;29;20229;-84
2021/12/25 10:20:53;;;;;;;23.53;14.60;;;;;;;;;;4955688;29;20236;-85
2021/12/25 10:23:29;;;;;;;15.87;13.83;;;;;;;;;;4956058;29;20222;-85
2021/12/25 10:25:58;;;;;;;56.23;39.40;;;;;;;;;;4956310;28;20285;-84
2021/12/25 10:28:30;;;;;;;26.77;18.87;;;;;;;;;;4956068;29;20253;-84
2021/12/25 10:30:59;;;;;;;20.70;15.70;;;;;;;;;;4955672;28;20217;-85
2021/12/25 10:33:31;;;;;;;9.97;8.73;;;;;;;;;;4955844;29;20675;-85
2021/12/25 10:36:00;;;;;;;28.80;21.43;;;;;;;;;;4955701;29;20245;-85
2021/12/25 10:38:32;;;;;;;85.77;68.07;;;;;;;;;;4955852;29;20705;-85
2021/12/25 10:41:18;;;;;;;62.40;48.20;;;;;;;;;;4955784;29;20685;-85
2021/12/25 10:43:47;;;;;;;16.83;13.87;;;;;;;;;;4955633;29;20252;-84
2021/12/25 10:46:14;;;;;;;10.83;9.37;;;;;;;;;;4955737;29;20202;-85
2021/12/25 10:48:42;;;;;;;10.13;9.10;;;;;;;;;;4955405;29;20208;-85
2021/12/25 10:51:26;;;;;;;21.30;17.50;;;;;;;;;;4955447;29;20792;-85
2021/12/25 10:53:56;;;;;;;21.20;16.97;;;;;;;;;;4955276;28;20241;-85
2021/12/25 10:56:36;;;;;;;17.13;14.97;;;;;;;;;;4955318;29;20202;-85
2021/12/25 10:59:05;;;;;;;16.37;14.20;;;;;;;;;;4955283;29;20197;-85
2021/12/25 11:01:39;;;;;;;18.30;14.23;;;;;;;;;;4955314;28;20206;-85
2021/12/25 11:04:25;;;;;;;21.90;17.90;;;;;;;;;;4955268;29;20191;-85
2021/12/25 11:06:56;;;;;;;19.13;15.83;;;;;;;;;;4955135;29;20198;-85
2021/12/25 11:09:28;;;;;;;18.50;13.10;;;;;;;;;;4955299;29;20205;-85
2021/12/25 11:12:20;;;;;;;38.23;27.73;;;;;;;;;;4954543;29;20261;-84
2021/12/25 11:15:19;;;;;;;22.90;15.60;;;;;;;;;;4954970;28;20206;-85
2021/12/25 11:18:04;;;;;;;17.63;14.60;;;;;;;;;;4955099;28;20190;-85
2021/12/25 11:20:34;;;;;;;24.27;20.00;;;;;;;;;;4935636;28;20214;-85
2021/12/25 11:23:06;;;;;;;22.10;19.13;;;;;;;;;;4934929;29;20333;-84
2021/12/25 11:25:36;;;;;;;18.67;16.10;;;;;;;;;;4935466;29;20676;-85
2021/12/25 11:28:06;;;;;;;26.90;18.57;;;;;;;;;;4935443;29;20206;-84
2021/12/25 11:30:39;;;;;;;19.87;16.20;;;;;;;;;;4935395;29;20194;-85
2021/12/25 11:33:12;;;;;;;19.07;15.53;;;;;;;;;;4935681;29;20253;-85
2021/12/25 11:35:49;;;;;;;14.67;12.37;;;;;;;;;;4935589;29;20293;-85
2021/12/25 11:38:25;;;;;;;15.23;12.17;;;;;;;;;;4935291;29;20691;-85
2021/12/25 11:40:56;;;;;;;10.97;9.50;;;;;;;;;;4935351;29;20230;-84
2021/12/25 11:43:41;;;;;;;12.73;10.47;;;;;;;;;;4935712;29;20656;-85
2021/12/25 11:46:09;;;;;;;32.40;20.60;;;;;;;;;;4935238;29;20640;-85
2021/12/25 11:48:37;;;;;;;47.90;32.43;;;;;;;;;;4935490;29;20285;-85
2021/12/25 11:51:05;;;;;;;21.73;15.53;;;;;;;;;;4935033;29;20227;-85
2021/12/25 11:53:46;;;;;;;20.37;16.47;;;;;;;;;;4935102;29;20203;-85
2021/12/25 11:59:00;;;;;;;21.23;12.73;;;;;;;;;;4926965;28;20286;-85
2021/12/25 12:01:31;;;;;;;13.33;10.90;;;;;;;;;;4934976;29;20289;-85
2021/12/25 12:03:59;;;;;;;15.13;11.00;;;;;;;;;;4935130;29;20201;-85
2021/12/25 12:06:57;;;;;;;14.10;12.50;;;;;;;;;;4934961;29;20202;-84
2021/12/25 12:09:26;;;;;;;18.87;12.70;;;;;;;;;;4934839;29;20257;-85
2021/12/25 12:12:12;;;;;;;31.97;22.80;;;;;;;;;;4934885;29;20864;-85
2021/12/25 12:14:40;;;;;;;16.90;13.83;;;;;;;;;;4935123;29;20627;-85
2021/12/25 12:17:26;;;;;;;13.90;11.20;;;;;;;;;;4935007;29;20636;-85
2021/12/25 12:19:55;;;;;;;15.93;11.93;;;;;;;;;;4935163;29;20207;-85
2021/12/25 12:22:45;;;;;;;21.30;17.50;;;;;;;;;;4933333;29;20333;-85
2021/12/25 12:25:29;;;;;;;18.13;14.53;;;;;;;;;;4934521;28;20206;-84
2021/12/25 12:28:02;;;;;;;31.00;20.13;;;;;;;;;;4934988;29;20571;-85
2021/12/25 12:30:54;;;;;;;31.07;23.47;;;;;;;;;;4935035;29;20275;-85
2021/12/25 12:33:33;;;;;;;12.80;11.40;;;;;;;;;;4925175;29;20238;-86
2021/12/25 12:36:00;;;;;;;21.70;15.97;;;;;;;;;;4931616;29;20303;-85
2021/12/25 12:38:38;;;;;;;26.57;20.60;;;;;;;;;;4934290;29;20205;-86
2021/12/25 12:41:17;;;;;;;12.30;10.60;;;;;;;;;;4934619;29;20229;-86
2021/12/25 12:44:05;;;;;;;24.87;19.67;;;;;;;;;;4934931;29;20651;-85
2021/12/25 12:47:01;;;;;;;15.33;13.40;;;;;;;;;;4928215;29;20266;-85
2021/12/25 12:49:33;;;;;;;11.47;10.03;;;;;;;;;;4934587;29;20209;-86
2021/12/25 12:52:25;;;;;;;12.27;10.90;;;;;;;;;;4934952;29;20233;-85
2021/12/25 12:54:55;;;;;;;14.90;11.40;;;;;;;;;;4934225;29;20222;-85
2021/12/25 12:57:25;;;;;;;13.10;9.07;;;;;;;;;;4944286;29;20206;-85
2021/12/25 12:59:55;;;;;;;14.57;11.87;;;;;;;;;;4953358;29;20766;-84
2021/12/25 13:02:25;;;;;;;20.80;17.90;;;;;;;;;;4941734;29;20207;-85
2021/12/25 13:04:56;;;;;;;22.63;18.17;;;;;;;;;;4934698;29;20291;-85
2021/12/25 13:07:24;;;;;;;16.80;15.20;;;;;;;;;;4939362;29;20188;-85
2021/12/25 13:10:02;;;;;;;13.03;11.63;;;;;;;;;;4953426;29;20300;-85
2021/12/25 13:12:40;;;;;;;22.67;17.97;;;;;;;;;;4946990;29;20220;-85
2021/12/25 13:15:16;;;;;;;24.63;20.23;;;;;;;;;;4936108;29;20198;-85
2021/12/25 13:17:54;;;;;;;29.50;23.17;;;;;;;;;;4932034;29;20198;-85
2021/12/25 13:20:38;;;;;;;24.07;19.27;;;;;;;;;;4937820;28;20209;-83
2021/12/25 13:23:08;;;;;;;25.63;20.50;;;;;;;;;;4947809;29;20258;-81
2021/12/25 13:25:35;;;;;;;20.93;18.30;;;;;;;;;;4941641;28;20289;-82
2021/12/25 13:28:05;;;;;;;26.73;21.20;;;;;;;;;;4946079;29;20583;-82
2021/12/25 13:30:36;;;;;;;25.77;22.93;;;;;;;;;;4937959;29;20260;-85
2021/12/25 13:33:11;;;;;;;20.30;17.50;;;;;;;;;;4934935;29;20226;-81
2021/12/25 13:35:43;;;;;;;22.73;19.20;;;;;;;;;;4937501;29;20257;-82
2021/12/25 13:38:10;;;;;;;17.73;15.20;;;;;;;;;;4938056;29;20287;-81
2021/12/25 13:40:38;;;;;;;24.97;20.53;;;;;;;;;;4937980;29;20233;-81
2021/12/25 13:43:14;;;;;;;26.07;21.30;;;;;;;;;;4936743;29;20245;-80
2021/12/25 13:45:43;;;;;;;28.23;22.30;;;;;;;;;;4938029;29;20209;-80
2021/12/25 13:48:11;;;;;;;27.63;23.53;;;;;;;;;;4937704;29;20674;-80
2021/12/25 13:50:38;;;;;;;33.63;26.40;;;;;;;;;;4937903;29;20229;-80
2021/12/25 13:53:18;;;;;;;53.00;41.03;;;;;;;;;;4934530;29;20233;-81
2021/12/25 13:55:47;;;;;;;37.33;28.57;;;;;;;;;;4935395;29;20275;-81
2021/12/25 13:58:16;;;;;;;54.77;41.00;;;;;;;;;;4937257;29;20738;-80
2021/12/25 14:00:48;;;;;;;29.33;26.23;;;;;;;;;;4937827;29;20750;-81
2021/12/25 14:03:18;;;;;;;24.53;19.07;;;;;;;;;;4936588;29;20278;-80
2021/12/25 14:05:48;;;;;;;20.53;15.20;;;;;;;;;;4936317;29;20198;-81
2021/12/25 14:08:19;;;;;;;18.57;15.50;;;;;;;;;;4937560;29;20638;-81
2021/12/25 14:10:47;;;;;;;33.03;20.47;;;;;;;;;;4933738;29;20198;-81
2021/12/25 14:13:17;;;;;;;46.03;28.33;;;;;;;;;;4938752;29;20711;-81
2021/12/25 14:15:50;;;;;;;76.53;40.10;;;;;;;;;;4932801;29;20207;-81
2021/12/25 14:18:17;;;;;;;38.47;24.43;;;;;;;;;;4937764;29;20610;-81
2021/12/25 14:20:45;;;;;;;39.53;29.23;;;;;;;;;;4936322;29;20745;-83
2021/12/25 14:23:13;;;;;;;20.83;15.63;;;;;;;;;;4938286;29;20291;-80
2021/12/25 14:25:42;;;;;;;30.20;20.80;;;;;;;;;;4935408;29;20592;-80
2021/12/25 14:28:12;;;;;;;19.00;15.67;;;;;;;;;;4937255;29;20208;-80
2021/12/25 14:30:43;;;;;;;28.43;20.43;;;;;;;;;;4937138;29;20212;-80
2021/12/25 14:33:23;;;;;;;40.60;27.77;;;;;;;;;;4937733;29;20300;-79
2021/12/25 14:35:50;;;;;;;29.57;22.87;;;;;;;;;;4930886;29;20250;-80
2021/12/25 14:38:24;;;;;;;20.53;17.70;;;;;;;;;;4936829;29;20203;-79
2021/12/25 14:40:52;;;;;;;27.13;21.30;;;;;;;;;;4933980;29;20198;-79
2021/12/25 14:43:21;;;;;;;14.27;11.50;;;;;;;;;;4937666;29;20294;-80
2021/12/25 14:45:50;;;;;;;10.43;9.07;;;;;;;;;;4936469;29;20652;-80
2021/12/25 14:48:30;;;;;;;11.53;9.43;;;;;;;;;;4936243;29;20218;-79
2021/12/25 14:51:00;;;;;;;10.03;9.00;;;;;;;;;;4935537;29;20198;-79
2021/12/25 14:53:28;;;;;;;11.87;9.37;;;;;;;;;;4929108;29;20774;-80
2021/12/25 14:56:01;;;;;;;11.87;9.77;;;;;;;;;;4937282;29;20203;-80
2021/12/25 14:58:30;;;;;;;12.13;9.73;;;;;;;;;;4932755;29;20220;-79
2021/12/25 15:01:09;;;;;;;8.70;7.03;;;;;;;;;;4936458;29;20281;-79
2021/12/25 15:03:39;;;;;;;9.37;8.10;;;;;;;;;;4934316;29;20193;-79
2021/12/25 15:06:07;;;;;;;40.60;29.37;;;;;;;;;;4932750;29;20281;-79
2021/12/25 15:08:35;;;;;;;52.33;32.03;;;;;;;;;;4934784;28;20663;-79
2021/12/25 15:11:20;;;;;;;12.40;8.87;;;;;;;;;;4936652;29;20742;-80
2021/12/25 15:13:58;;;;;;;9.27;6.43;;;;;;;;;;4938090;29;20218;-87
2021/12/25 15:16:35;;;;;;;9.87;6.90;;;;;;;;;;4935700;29;20620;-84
2021/12/25 15:19:25;;;;;;;6.80;5.73;;;;;;;;;;4934513;29;20250;-83
2021/12/25 15:21:56;;;;;;;152.57;63.40;;;;;;;;;;4951122;28;20609;-84
2021/12/25 15:24:33;;;;;;;108.17;50.87;;;;;;;;;;4954860;28;20588;-86
2021/12/25 15:27:02;;;;;;;26.40;18.43;;;;;;;;;;4954889;28;20276;-87
2021/12/25 15:29:34;;;;;;;26.73;23.90;;;;;;;;;;4954944;29;20285;-88
2021/12/25 15:32:08;;;;;;;17.93;14.33;;;;;;;;;;4935876;29;20200;-86
2021/12/25 15:34:38;;;;;;;15.77;13.80;;;;;;;;;;4936107;29;20615;-85
2021/12/25 15:37:19;;;;;;;18.90;14.67;;;;;;;;;;4935636;29;20258;-84
2021/12/25 15:39:49;;;;;;;21.27;15.47;;;;;;;;;;4935245;29;20755;-87